Time;durP1;ratioP1;P1;durP2;ratioP2;P2;SDS_P1;SDS_P2;PMS_P1;PMS_P2;Temp;Humidity;BMP_temperature;BMP_pressure;BME280_temperature;BME280_humidity;BME280_pressure;Samples;Min_cycle;Max_cycle;Signal;HPM_P1;HPM_P2
2021/12/06 00:01:18;;;;;;;74.60;34.00;;;;;;;0.27;90.18;99487.08;102986;1312;25502;-57
2021/12/06 00:03:51;;;;;;;86.60;34.00;;;;;;;0.26;90.27;99486.92;102867;1317;24455;-58
2021/12/06 00:06:22;;;;;;;84.00;34.60;;;;;;;0.26;90.23;99484.89;102971;1313;22597;-58
2021/12/06 00:08:51;;;;;;;75.90;32.50;;;;;;;0.26;90.26;99482.39;102811;1312;22627;-58
2021/12/06 00:11:20;;;;;;;89.40;35.20;;;;;;;0.26;90.39;99490.85;102835;1312;22580;-55
2021/12/06 00:13:49;;;;;;;78.90;31.00;;;;;;;0.26;90.26;99494.62;102749;1313;22593;-58
2021/12/06 00:16:22;;;;;;;77.20;31.60;;;;;;;0.26;90.30;99492.80;102760;1312;24333;-59
2021/12/06 00:18:52;;;;;;;77.20;29.50;;;;;;;0.27;90.40;99488.87;102958;1317;23075;-57
2021/12/06 00:21:22;;;;;;;74.30;29.60;;;;;;;0.27;90.32;99494.91;102725;1312;22607;-55
2021/12/06 00:23:51;;;;;;;77.40;34.20;;;;;;;0.27;90.19;99497.51;102886;1317;25454;-57
2021/12/06 00:26:20;;;;;;;73.90;28.90;;;;;;;0.27;90.15;99494.83;102931;1312;22614;-58
2021/12/06 00:28:56;;;;;;;81.90;32.00;;;;;;;0.28;90.23;99503.81;102721;1312;22844;-58
2021/12/06 00:31:27;;;;;;;84.40;32.30;;;;;;;0.29;90.18;99502.70;102643;1313;24333;-58
2021/12/06 00:33:59;;;;;;;67.90;28.90;;;;;;;0.30;90.15;99507.61;102714;1317;22658;-58
2021/12/06 00:36:30;;;;;;;72.00;29.80;;;;;;;0.31;90.07;99504.55;102936;1317;22694;-56
2021/12/06 00:39:00;;;;;;;65.00;24.70;;;;;;;0.32;90.02;99495.89;102683;1312;22581;-58
2021/12/06 00:41:29;;;;;;;63.60;26.90;;;;;;;0.32;89.99;99497.85;102708;1312;22651;-55
2021/12/06 00:43:58;;;;;;;55.40;22.90;;;;;;;0.34;89.87;99498.19;102985;1317;22635;-57
2021/12/06 00:46:28;;;;;;;53.40;24.00;;;;;;;0.36;89.84;99500.34;102688;1317;25371;-57
2021/12/06 00:48:56;;;;;;;62.90;25.50;;;;;;;0.38;89.75;99504.85;102763;1317;22629;-57
2021/12/06 00:51:25;;;;;;;61.30;25.70;;;;;;;0.41;89.86;99507.67;102662;1317;22574;-58
2021/12/06 00:53:53;;;;;;;57.90;25.30;;;;;;;0.45;89.77;99513.70;102859;1312;22614;-56
2021/12/06 00:56:21;;;;;;;60.30;23.90;;;;;;;0.46;89.64;99521.90;102778;1315;23218;-55
2021/12/06 00:58:50;;;;;;;56.90;25.00;;;;;;;0.47;89.68;99521.34;102681;1313;22590;-57
2021/12/06 01:01:18;;;;;;;54.90;23.30;;;;;;;0.48;89.60;99522.09;102644;1312;22785;-57
2021/12/06 01:03:47;;;;;;;57.50;23.50;;;;;;;0.50;89.60;99527.94;102876;1319;26922;-55
2021/12/06 01:06:16;;;;;;;67.50;25.20;;;;;;;0.51;89.67;99529.80;102656;1312;23955;-57
2021/12/06 01:08:45;;;;;;;59.10;24.40;;;;;;;0.52;89.43;99535.48;103023;1314;25222;-56
2021/12/06 01:11:15;;;;;;;65.80;27.10;;;;;;;0.52;89.50;99537.76;102829;1312;22857;-57
2021/12/06 01:13:43;;;;;;;62.60;26.80;;;;;;;0.54;89.51;99539.77;102844;1312;22628;-57
2021/12/06 01:16:11;;;;;;;62.80;26.10;;;;;;;0.56;89.44;99545.77;102646;1313;22643;-60
2021/12/06 01:18:39;;;;;;;62.20;26.90;;;;;;;0.55;89.35;99543.83;102913;1312;22646;-57
2021/12/06 01:21:16;;;;;;;66.20;28.30;;;;;;;0.55;89.40;99546.81;103546;1301;22590;-55
2021/12/06 01:23:52;;;;;;;60.50;25.40;;;;;;;0.54;89.44;99548.70;102962;1313;24399;-52
2021/12/06 01:26:37;;;;;;;72.80;27.90;;;;;;;0.53;89.38;99547.86;102899;1312;22640;-56
2021/12/06 01:29:39;;;;;;;70.10;27.00;;;;;;;0.56;89.48;99544.19;102959;1313;22851;-53
2021/12/06 01:32:17;;;;;;;63.20;27.40;;;;;;;0.56;89.49;99546.63;102935;1312;24238;-54
2021/12/06 01:40:22;;;;;;;82.30;29.80;;;;;;;0.62;89.31;99552.69;102950;1312;22716;-57
2021/12/06 01:42:51;;;;;;;81.80;30.20;;;;;;;0.61;89.26;99556.30;103122;1312;22653;-53
2021/12/06 01:45:22;;;;;;;71.90;30.20;;;;;;;0.60;89.23;99559.80;102869;1315;22570;-54
2021/12/06 01:47:50;;;;;;;79.70;30.10;;;;;;;0.59;89.29;99561.55;102954;1317;25943;-57
2021/12/06 01:50:23;;;;;;;74.20;27.10;;;;;;;0.56;89.08;99565.53;102901;1316;22741;-54
2021/12/06 01:52:56;;;;;;;83.40;30.70;;;;;;;0.52;89.18;99568.13;103018;1319;22622;-57
2021/12/06 01:55:28;;;;;;;74.10;31.80;;;;;;;0.49;89.09;99569.23;103117;1313;22729;-56
2021/12/06 01:57:58;;;;;;;80.20;31.70;;;;;;;0.48;89.21;99578.75;102937;1312;22725;-55
2021/12/06 02:00:30;;;;;;;81.60;32.90;;;;;;;0.46;89.32;99579.03;103099;1318;23015;-55
2021/12/06 02:02:59;;;;;;;89.60;36.60;;;;;;;0.42;89.31;99579.11;103045;1313;22806;-57
2021/12/06 02:05:28;;;;;;;90.70;34.70;;;;;;;0.40;89.32;99581.20;102914;1313;25550;-53
2021/12/06 02:07:57;;;;;;;79.50;26.20;;;;;;;0.38;89.29;99579.13;102947;1316;22585;-57
2021/12/06 02:10:27;;;;;;;84.80;31.60;;;;;;;0.35;89.41;99584.14;103045;1317;22589;-57
2021/12/06 02:12:55;;;;;;;84.70;34.30;;;;;;;0.32;89.42;99586.09;103028;1318;22579;-56
2021/12/06 02:15:36;;;;;;;96.00;38.40;;;;;;;0.32;89.46;99584.75;102921;1313;22617;-54
2021/12/06 02:18:10;;;;;;;100.20;39.80;;;;;;;0.32;89.59;99587.74;102917;1316;23422;-56
2021/12/06 02:20:47;;;;;;;100.50;36.40;;;;;;;0.28;89.45;99591.35;102824;1317;22669;-57
2021/12/06 02:23:17;;;;;;;86.50;35.20;;;;;;;0.27;89.45;99594.27;102859;1312;22590;-57
2021/12/06 02:25:47;;;;;;;94.30;35.80;;;;;;;0.25;89.39;99597.08;102987;1313;22580;-52
2021/12/06 02:28:16;;;;;;;85.00;35.90;;;;;;;0.23;89.38;99596.19;102917;1312;22590;-54
2021/12/06 02:30:45;;;;;;;84.20;33.10;;;;;;;0.20;89.43;99594.27;102962;1319;22726;-53
2021/12/06 02:33:13;;;;;;;92.50;35.40;;;;;;;0.17;89.36;99585.23;103048;1313;22791;-56
2021/12/06 02:35:42;;;;;;;89.80;37.90;;;;;;;0.13;89.44;99578.43;102740;1313;25402;-57
2021/12/06 02:38:11;;;;;;;90.30;35.20;;;;;;;0.09;89.44;99583.38;102776;1316;25295;-53
2021/12/06 02:40:41;;;;;;;93.80;36.90;;;;;;;0.04;89.53;99587.72;103008;1313;22641;-59
2021/12/06 02:43:11;;;;;;;95.90;36.70;;;;;;;0.02;89.50;99592.23;102747;1319;23850;-58
2021/12/06 02:45:41;;;;;;;94.30;36.20;;;;;;;-0.01;89.55;99584.98;102940;1318;22590;-56
2021/12/06 02:48:11;;;;;;;;;;;;;;;-0.03;89.47;99583.86;103023;1317;22568;-56
2021/12/06 02:50:44;;;;;;;89.70;35.40;;;;;;;-0.06;89.52;99574.42;102935;1313;23662;-57
2021/12/06 02:53:13;;;;;;;95.30;36.80;;;;;;;-0.07;89.52;99571.86;102958;1313;25223;-56
2021/12/06 02:55:43;;;;;;;82.80;31.90;;;;;;;-0.07;89.54;99578.52;102954;1313;25499;-56
2021/12/06 02:58:17;;;;;;;96.90;36.70;;;;;;;-0.07;89.48;99583.00;102852;1317;24224;-57
2021/12/06 03:00:49;;;;;;;100.80;40.50;;;;;;;-0.07;89.32;99581.89;102900;1319;22697;-59
2021/12/06 03:03:18;;;;;;;96.20;38.70;;;;;;;-0.06;89.36;99591.30;102905;1312;24174;-56
2021/12/06 03:05:50;;;;;;;94.90;39.20;;;;;;;-0.07;89.28;99602.66;102903;1317;22586;-57
2021/12/06 03:08:38;;;;;;;88.10;36.30;;;;;;;-0.05;89.19;99614.39;102954;1315;22922;-56
2021/12/06 03:11:10;;;;;;;89.80;37.20;;;;;;;-0.06;89.01;99614.48;102937;1313;22795;-57
2021/12/06 03:13:39;;;;;;;84.10;34.50;;;;;;;-0.05;89.03;99613.30;103255;1313;22743;-55
2021/12/06 03:16:07;;;;;;;93.40;40.20;;;;;;;-0.04;88.98;99616.66;103342;1317;22713;-57
2021/12/06 03:18:36;;;;;;;107.90;42.80;;;;;;;-0.02;89.16;99619.90;103077;1317;22561;-58
2021/12/06 03:21:05;;;;;;;102.10;41.00;;;;;;;-0.00;89.17;99624.80;103108;1315;24232;-55
2021/12/06 03:23:34;;;;;;;93.00;37.40;;;;;;;0.02;89.15;99629.86;102919;1313;22632;-53
2021/12/06 03:26:02;;;;;;;96.40;43.20;;;;;;;-0.00;88.95;99636.95;103037;1316;22739;-56
2021/12/06 03:28:34;;;;;;;87.40;34.90;;;;;;;-0.04;88.93;99634.83;102968;1318;22569;-56
2021/12/06 03:31:04;;;;;;;89.00;35.80;;;;;;;-0.05;88.96;99638.70;103021;1312;24367;-54
2021/12/06 03:33:34;;;;;;;94.40;39.40;;;;;;;-0.07;89.08;99635.84;103214;1318;24190;-57
2021/12/06 03:36:04;;;;;;;99.10;41.40;;;;;;;-0.09;89.13;99638.16;102970;1313;25364;-54
2021/12/06 03:38:33;;;;;;;96.10;38.10;;;;;;;-0.12;89.13;99633.89;103088;1313;25391;-55
2021/12/06 03:41:01;;;;;;;85.60;33.80;;;;;;;-0.14;89.31;99625.23;102945;1313;25657;-56
2021/12/06 03:43:30;;;;;;;96.00;37.00;;;;;;;-0.14;89.43;99620.14;102901;1317;25712;-53
2021/12/06 03:45:59;;;;;;;94.10;38.40;;;;;;;-0.15;89.43;99622.98;102865;1317;22584;-56
2021/12/06 03:48:27;;;;;;;101.40;40.40;;;;;;;-0.16;89.38;99632.41;102953;1313;26909;-57
2021/12/06 03:50:56;;;;;;;102.20;41.90;;;;;;;-0.16;89.34;99647.84;102764;1315;22845;-55
2021/12/06 03:53:24;;;;;;;99.80;43.80;;;;;;;-0.14;89.39;99655.10;102826;1313;24324;-53
2021/12/06 03:55:52;;;;;;;97.30;41.20;;;;;;;-0.12;89.33;99651.91;102899;1313;23997;-56
2021/12/06 03:58:21;;;;;;;104.30;41.60;;;;;;;-0.12;89.25;99652.00;102970;1315;25529;-55
2021/12/06 04:00:50;;;;;;;96.50;39.40;;;;;;;-0.11;89.30;99662.17;102974;1320;25500;-58
2021/12/06 04:03:21;;;;;;;90.50;37.50;;;;;;;-0.10;89.20;99676.90;103307;1313;22588;-54
2021/12/06 04:05:50;;;;;;;96.40;38.70;;;;;;;-0.12;89.20;99675.83;102928;1316;24313;-57
2021/12/06 04:08:19;;;;;;;91.50;36.40;;;;;;;-0.12;89.22;99680.30;102869;1315;26606;-55
2021/12/06 04:10:48;;;;;;;94.80;37.90;;;;;;;-0.12;89.24;99686.01;102880;1315;24369;-55
2021/12/06 04:13:17;;;;;;;100.10;38.30;;;;;;;-0.12;89.23;99689.54;103030;1318;25606;-56
2021/12/06 04:15:46;;;;;;;100.50;39.30;;;;;;;-0.11;89.25;99682.64;103041;1318;24263;-53
2021/12/06 04:18:15;;;;;;;93.40;37.60;;;;;;;-0.11;89.29;99672.98;103016;1313;22616;-57
2021/12/06 04:20:44;;;;;;;108.10;41.60;;;;;;;-0.11;89.33;99665.00;103029;1313;22616;-53
2021/12/06 04:23:15;;;;;;;108.70;41.30;;;;;;;-0.10;89.29;99662.22;102960;1315;22668;-56
2021/12/06 04:25:44;;;;;;;100.80;39.40;;;;;;;-0.11;89.30;99661.07;102881;1315;24457;-54
2021/12/06 04:28:15;;;;;;;97.70;38.40;;;;;;;-0.10;89.22;99671.02;102983;1317;25421;-58
2021/12/06 04:30:45;;;;;;;97.00;36.80;;;;;;;-0.12;89.23;99667.92;102854;1319;25550;-57
2021/12/06 04:33:14;;;;;;;97.00;40.20;;;;;;;-0.13;89.30;99669.34;103045;1317;22623;-56
2021/12/06 04:35:44;;;;;;;96.80;39.80;;;;;;;-0.12;89.43;99674.50;102840;1315;24246;-55
2021/12/06 04:38:13;;;;;;;102.10;40.20;;;;;;;-0.11;89.42;99682.70;102627;1309;615566;-54
2021/12/06 04:40:42;;;;;;;102.00;39.70;;;;;;;-0.09;89.31;99683.94;103089;1313;27002;-54
2021/12/06 04:43:11;;;;;;;101.20;38.60;;;;;;;-0.10;89.21;99681.98;103001;1317;22573;-54
2021/12/06 04:45:39;;;;;;;99.40;39.40;;;;;;;-0.09;89.23;99682.14;102976;1319;26641;-56
2021/12/06 04:48:09;;;;;;;115.50;44.80;;;;;;;-0.08;89.21;99684.45;102901;1315;22570;-55
2021/12/06 04:50:42;;;;;;;95.40;38.10;;;;;;;-0.08;89.20;99685.23;102983;1313;22595;-57
2021/12/06 04:53:16;;;;;;;87.00;32.80;;;;;;;-0.08;89.13;99684.06;103022;1315;22586;-52
2021/12/06 04:55:55;;;;;;;103.40;40.00;;;;;;;-0.09;89.04;99686.52;103057;1315;25298;-54
2021/12/06 04:58:28;;;;;;;99.90;38.30;;;;;;;-0.09;89.11;99685.17;102952;1317;24196;-54
2021/12/06 05:01:04;;;;;;;94.10;38.90;;;;;;;-0.10;88.98;99690.77;106610;1318;22979;-55
2021/12/06 05:03:34;;;;;;;90.00;37.80;;;;;;;-0.11;88.95;99688.05;106603;1317;23082;-56
2021/12/06 05:06:06;;;;;;;97.70;37.10;;;;;;;-0.11;88.87;99692.34;105144;1315;25359;-52
2021/12/06 05:08:38;;;;;;;94.90;34.50;;;;;;;-0.09;88.94;99696.71;102950;1312;25697;-55
2021/12/06 05:11:07;;;;;;;89.50;36.20;;;;;;;-0.07;88.90;99698.01;102943;1312;22599;-56
2021/12/06 05:13:37;;;;;;;84.20;33.60;;;;;;;-0.07;88.84;99696.67;103000;1312;22555;-56
2021/12/06 05:16:06;;;;;;;79.60;29.30;;;;;;;-0.10;88.66;99700.41;102840;1319;22592;-59
2021/12/06 05:18:35;;;;;;;92.80;36.10;;;;;;;-0.12;88.64;99699.04;102824;1319;22672;-57
2021/12/06 05:21:04;;;;;;;97.30;34.90;;;;;;;-0.13;88.70;99706.03;102996;1313;24453;-54
2021/12/06 05:23:34;;;;;;;89.90;34.90;;;;;;;-0.13;88.83;99705.73;102977;1312;22577;-55
2021/12/06 05:26:03;;;;;;;92.00;35.70;;;;;;;-0.14;88.84;99706.59;102945;1315;22728;-55
2021/12/06 05:28:39;;;;;;;82.60;30.40;;;;;;;-0.16;88.71;99708.91;102937;1312;22713;-59
2021/12/06 05:31:14;;;;;;;85.20;32.60;;;;;;;-0.17;88.86;99712.84;103262;1319;25651;-58
2021/12/06 05:33:43;;;;;;;87.40;33.00;;;;;;;-0.17;88.88;99713.00;102949;1312;26278;-62
2021/12/06 05:36:11;;;;;;;86.20;34.30;;;;;;;-0.17;88.93;99718.89;102952;1312;24243;-60
2021/12/06 05:38:41;;;;;;;88.40;35.60;;;;;;;-0.16;88.95;99723.09;102867;1312;23202;-61
2021/12/06 05:41:09;;;;;;;83.90;32.40;;;;;;;-0.16;88.86;99727.02;102891;1313;25329;-60
2021/12/06 05:43:39;;;;;;;92.40;35.20;;;;;;;-0.17;88.82;99731.89;102963;1317;22699;-61
2021/12/06 05:46:07;;;;;;;75.40;28.60;;;;;;;-0.15;88.98;99735.16;102924;1318;22809;-60
2021/12/06 05:48:36;;;;;;;89.40;32.70;;;;;;;-0.16;88.88;99738.70;102942;1318;22587;-59
2021/12/06 05:51:04;;;;;;;85.60;34.40;;;;;;;-0.16;88.89;99738.94;102898;1315;26105;-59
2021/12/06 05:53:34;;;;;;;82.40;30.60;;;;;;;-0.16;88.78;99739.48;102968;1315;22633;-62
2021/12/06 05:56:04;;;;;;;80.80;33.10;;;;;;;-0.17;88.77;99740.60;103061;1312;22620;-57
2021/12/06 05:58:34;;;;;;;82.00;31.50;;;;;;;-0.15;88.88;99746.91;103208;1312;26499;-57
2021/12/06 06:01:03;;;;;;;84.50;30.40;;;;;;;-0.15;88.83;99749.42;103054;1319;24729;-56
2021/12/06 06:03:33;;;;;;;83.10;32.40;;;;;;;-0.13;88.91;99758.00;103802;1312;22565;-52
2021/12/06 06:06:01;;;;;;;82.40;33.00;;;;;;;-0.13;88.87;99761.44;102857;1313;23218;-56
2021/12/06 06:08:30;;;;;;;87.50;33.60;;;;;;;-0.10;88.90;99766.48;106594;1317;23007;-57
2021/12/06 06:10:58;;;;;;;80.60;31.10;;;;;;;-0.07;88.87;99772.24;106057;1312;22636;-53
2021/12/06 06:13:26;;;;;;;75.90;29.30;;;;;;;-0.08;88.69;99776.55;103068;1318;22578;-58
2021/12/06 06:15:55;;;;;;;83.30;32.40;;;;;;;-0.08;88.71;99788.16;103086;1319;26785;-59
2021/12/06 06:18:24;;;;;;;73.70;29.20;;;;;;;-0.09;88.74;99788.34;102917;1313;25304;-56
2021/12/06 06:20:54;;;;;;;78.40;30.20;;;;;;;-0.08;88.70;99794.11;102684;1315;24248;-58
2021/12/06 06:23:23;;;;;;;78.40;30.70;;;;;;;-0.06;88.71;99797.63;102942;1319;24259;-54
2021/12/06 06:25:52;;;;;;;;;;;;;;;-0.04;88.70;99798.68;103035;1318;25233;-55
2021/12/06 06:28:21;;;;;;;78.20;31.20;;;;;;;-0.04;88.69;99804.79;102940;1316;23145;-54
2021/12/06 06:30:50;;;;;;;81.70;31.10;;;;;;;-0.04;88.62;99805.73;102880;1319;22623;-57
2021/12/06 06:33:18;;;;;;;76.40;33.10;;;;;;;-0.02;88.67;99808.14;102943;1315;24236;-53
2021/12/06 06:35:49;;;;;;;81.90;30.90;;;;;;;-0.01;88.73;99810.08;102907;1317;22581;-55
2021/12/06 06:38:20;;;;;;;83.70;32.10;;;;;;;-0.01;88.76;99810.23;103113;1317;25326;-53
2021/12/06 06:40:50;;;;;;;68.90;27.00;;;;;;;-0.01;88.63;99815.88;102939;1315;24038;-55
2021/12/06 06:43:20;;;;;;;61.00;23.60;;;;;;;-0.02;88.60;99816.36;103182;1312;22609;-56
2021/12/06 06:45:51;;;;;;;56.20;23.00;;;;;;;-0.05;88.55;99819.48;103054;1319;22720;-57
2021/12/06 06:48:20;;;;;;;77.20;32.00;;;;;;;-0.07;88.59;99817.47;103060;1316;22636;-53
2021/12/06 06:50:50;;;;;;;83.40;35.00;;;;;;;-0.08;88.67;99816.85;102978;1318;25553;-53
2021/12/06 06:53:20;;;;;;;82.10;37.30;;;;;;;-0.10;88.65;99822.05;102948;1313;25660;-54
2021/12/06 06:55:49;;;;;;;83.60;38.30;;;;;;;-0.10;88.70;99825.99;102902;1314;24280;-59
2021/12/06 06:58:18;;;;;;;69.60;25.40;;;;;;;-0.12;88.72;99826.72;102913;1318;24215;-57
2021/12/06 07:00:47;;;;;;;65.20;27.90;;;;;;;-0.14;88.68;99828.25;102966;1317;22597;-55
2021/12/06 07:03:16;;;;;;;67.50;26.40;;;;;;;-0.15;88.88;99833.67;102970;1312;22580;-55
2021/12/06 07:05:46;;;;;;;64.20;27.40;;;;;;;-0.16;88.94;99837.69;102914;1316;22574;-56
2021/12/06 07:08:18;;;;;;;61.40;24.40;;;;;;;-0.16;88.84;99837.60;103047;1316;24534;-58
2021/12/06 07:10:50;;;;;;;63.70;24.70;;;;;;;-0.17;88.84;99841.71;103707;1315;22582;-59
2021/12/06 07:13:21;;;;;;;70.50;27.20;;;;;;;-0.18;88.98;99835.83;102781;1320;22632;-58
2021/12/06 07:15:52;;;;;;;59.90;24.10;;;;;;;-0.19;88.94;99836.78;103345;1319;22672;-61
2021/12/06 07:18:22;;;;;;;61.90;25.70;;;;;;;-0.19;88.99;99840.46;102912;1317;25514;-57
2021/12/06 07:20:51;;;;;;;68.10;27.10;;;;;;;-0.18;88.91;99842.42;103065;1315;22611;-57
2021/12/06 07:23:21;;;;;;;63.90;25.30;;;;;;;-0.18;88.95;99841.71;103299;1303;22630;-57
2021/12/06 07:25:50;;;;;;;64.90;26.80;;;;;;;-0.19;88.94;99841.19;103220;1316;22630;-56
2021/12/06 07:28:19;;;;;;;72.00;28.00;;;;;;;-0.19;89.09;99842.20;102756;1319;24347;-56
2021/12/06 07:30:50;;;;;;;66.40;25.90;;;;;;;-0.19;89.10;99840.33;103037;1319;22590;-58
2021/12/06 07:33:20;;;;;;;77.70;27.10;;;;;;;-0.19;89.11;99840.95;103219;1315;26677;-58
2021/12/06 07:35:48;;;;;;;83.10;32.70;;;;;;;-0.17;89.18;99844.61;103059;1316;22686;-59
2021/12/06 07:38:18;;;;;;;75.90;31.60;;;;;;;-0.15;89.21;99837.52;102841;1316;25775;-56
2021/12/06 07:40:50;;;;;;;77.00;31.80;;;;;;;-0.13;89.19;99840.00;102742;1315;24315;-57
2021/12/06 07:43:19;;;;;;;79.60;29.90;;;;;;;-0.13;89.28;99835.52;102711;1316;24443;-57
2021/12/06 07:45:47;;;;;;;76.50;30.80;;;;;;;-0.13;89.23;99829.17;102936;1315;24693;-57
2021/12/06 07:48:16;;;;;;;78.50;31.20;;;;;;;-0.11;89.29;99830.47;102883;1313;22563;-57
2021/12/06 07:50:45;;;;;;;76.00;30.90;;;;;;;-0.09;89.32;99826.67;102730;1315;25687;-57
2021/12/06 07:53:14;;;;;;;74.60;27.70;;;;;;;-0.07;89.35;99823.89;102785;1316;22774;-57
2021/12/06 07:55:43;;;;;;;83.80;31.30;;;;;;;-0.06;89.41;99825.59;102933;1316;22580;-59
2021/12/06 07:58:13;;;;;;;73.80;26.00;;;;;;;-0.05;89.41;99826.45;103142;1317;22573;-57
2021/12/06 08:00:47;;;;;;;70.30;29.30;;;;;;;-0.04;89.37;99827.84;102885;1321;22681;-59
2021/12/06 08:03:19;;;;;;;66.50;26.80;;;;;;;-0.03;89.43;99827.60;103314;1316;26913;-57
2021/12/06 08:05:49;;;;;;;66.10;27.00;;;;;;;-0.05;89.25;99829.59;103260;1315;22626;-57
2021/12/06 08:08:22;;;;;;;71.50;27.40;;;;;;;-0.06;89.33;99832.66;103271;1319;24190;-57
2021/12/06 08:10:53;;;;;;;67.60;25.90;;;;;;;-0.07;89.36;99830.34;102923;1315;25545;-57
2021/12/06 08:13:25;;;;;;;72.50;28.30;;;;;;;-0.07;89.44;99840.42;102813;1315;24243;-58
2021/12/06 08:15:56;;;;;;;67.50;26.40;;;;;;;-0.08;89.49;99841.55;102907;1320;22599;-57
2021/12/06 08:18:26;;;;;;;65.70;23.60;;;;;;;-0.08;89.46;99848.22;102754;1316;24278;-57
2021/12/06 08:20:56;;;;;;;61.20;26.60;;;;;;;-0.10;89.55;99851.08;102744;1315;22585;-57
2021/12/06 08:23:25;;;;;;;66.40;25.50;;;;;;;-0.12;89.59;99855.19;102778;1315;22597;-58
2021/12/06 08:25:55;;;;;;;58.40;23.80;;;;;;;-0.14;89.59;99862.11;102972;1315;25522;-57
2021/12/06 08:28:24;;;;;;;67.50;25.90;;;;;;;-0.15;89.60;99864.64;103353;1315;22747;-58
2021/12/06 08:30:55;;;;;;;58.10;21.60;;;;;;;-0.17;89.68;99868.89;103289;1315;24254;-57
2021/12/06 08:33:23;;;;;;;63.00;23.70;;;;;;;-0.17;89.68;99875.65;103233;1315;26584;-57
2021/12/06 08:35:54;;;;;;;62.80;24.20;;;;;;;-0.18;89.67;99881.05;103245;1313;25908;-57
2021/12/06 08:38:22;;;;;;;;;;;;;;;-0.18;89.73;99880.83;103319;1315;24436;-60
2021/12/06 08:40:52;;;;;;;59.00;22.00;;;;;;;-0.20;89.80;99885.64;103304;1315;22988;-60
2021/12/06 08:43:21;;;;;;;54.50;20.60;;;;;;;-0.19;89.72;99886.80;103359;1317;22714;-60
2021/12/06 08:45:54;;;;;;;49.90;17.80;;;;;;;-0.19;89.75;99889.39;103268;1318;23149;-61
2021/12/06 08:48:26;;;;;;;46.80;17.60;;;;;;;-0.19;89.95;99890.88;103104;1315;22570;-60
2021/12/06 08:51:00;;;;;;;43.60;18.50;;;;;;;-0.19;89.96;99893.92;103208;1316;22654;-61
2021/12/06 08:53:30;;;;;;;51.00;17.60;;;;;;;-0.17;89.85;99897.59;103665;1315;24320;-58
2021/12/06 08:56:00;;;;;;;55.90;22.50;;;;;;;-0.18;89.93;99901.83;103452;1319;25393;-58
2021/12/06 08:58:28;;;;;;;51.70;19.40;;;;;;;-0.17;89.97;99905.75;103390;1315;22671;-58
2021/12/06 09:00:57;;;;;;;48.20;18.30;;;;;;;-0.16;89.92;99908.87;103320;1319;22596;-58
2021/12/06 09:03:26;;;;;;;44.00;16.70;;;;;;;-0.15;89.93;99913.02;103475;1320;26947;-59
2021/12/06 09:05:56;;;;;;;47.90;18.00;;;;;;;-0.15;89.95;99914.10;103245;1317;25536;-56
2021/12/06 09:08:26;;;;;;;44.00;18.20;;;;;;;-0.15;89.96;99915.05;103312;1315;23707;-57
2021/12/06 09:10:54;;;;;;;48.60;18.60;;;;;;;-0.14;89.81;99918.40;103279;1319;22678;-58
2021/12/06 09:13:26;;;;;;;43.40;17.50;;;;;;;-0.14;90.00;99918.39;103228;1315;22723;-57
2021/12/06 09:15:56;;;;;;;48.30;17.90;;;;;;;-0.13;89.99;99915.16;103313;1321;24238;-59
2021/12/06 09:18:25;;;;;;;55.10;21.10;;;;;;;-0.13;89.97;99916.36;103214;1319;26649;-57
2021/12/06 09:20:55;;;;;;;50.70;17.50;;;;;;;-0.14;90.10;99917.14;103294;1315;24076;-57
2021/12/06 09:23:23;;;;;;;44.80;16.80;;;;;;;-0.16;89.94;99922.27;103438;1319;23920;-59
2021/12/06 09:25:52;;;;;;;44.50;17.20;;;;;;;-0.17;90.05;99928.33;103118;1315;22599;-57
2021/12/06 09:28:22;;;;;;;56.00;18.70;;;;;;;-0.17;90.10;99929.73;103297;1316;22739;-58
2021/12/06 09:30:52;;;;;;;48.90;18.50;;;;;;;-0.16;90.04;99932.69;103356;1321;24265;-57
2021/12/06 09:33:22;;;;;;;46.50;18.20;;;;;;;-0.14;90.20;99929.91;103159;1314;24331;-57
2021/12/06 09:35:54;;;;;;;53.80;19.80;;;;;;;-0.13;90.23;99928.90;102743;1314;22596;-54
2021/12/06 09:38:26;;;;;;;40.70;16.30;;;;;;;-0.12;90.17;99929.50;102770;1315;22588;-56
2021/12/06 09:40:58;;;;;;;53.60;21.40;;;;;;;-0.13;90.13;99932.42;102661;1319;22574;-56
2021/12/06 09:43:26;;;;;;;46.00;16.90;;;;;;;-0.14;90.04;99929.52;102755;1316;22600;-57
2021/12/06 09:45:55;;;;;;;48.10;18.10;;;;;;;-0.15;90.11;99929.39;102867;1320;24288;-57
2021/12/06 09:48:24;;;;;;;50.30;19.70;;;;;;;-0.16;90.00;99929.95;102668;1319;22729;-57
2021/12/06 09:50:57;;;;;;;52.00;20.10;;;;;;;-0.17;90.15;99931.38;102753;1315;22596;-57
2021/12/06 09:53:30;;;;;;;56.60;23.10;;;;;;;-0.19;90.19;99939.01;102775;1318;24240;-56
2021/12/06 09:56:03;;;;;;;53.00;20.10;;;;;;;-0.19;90.22;99938.76;102746;1314;23118;-57
2021/12/06 09:58:32;;;;;;;51.00;18.50;;;;;;;-0.18;90.35;99935.62;102785;1315;24461;-56
2021/12/06 10:01:05;;;;;;;49.30;21.30;;;;;;;-0.18;90.31;99933.42;102639;1315;22850;-56
2021/12/06 10:03:36;;;;;;;55.50;20.90;;;;;;;-0.17;90.47;99935.93;102764;1320;25453;-58
2021/12/06 10:06:06;;;;;;;46.40;20.40;;;;;;;-0.17;90.39;99932.71;103017;1316;22609;-57
2021/12/06 10:08:39;;;;;;;50.40;20.10;;;;;;;-0.18;90.34;99932.88;102746;1315;22561;-57
2021/12/06 10:11:09;;;;;;;53.80;20.50;;;;;;;-0.18;90.36;99934.45;102742;1317;22661;-58
2021/12/06 10:13:39;;;;;;;51.60;19.40;;;;;;;-0.19;90.35;99934.86;102782;1315;24387;-57
2021/12/06 10:16:08;;;;;;;52.40;20.40;;;;;;;-0.20;90.46;99937.60;102784;1315;23043;-58
2021/12/06 10:18:38;;;;;;;52.30;20.90;;;;;;;-0.21;90.37;99935.27;102853;1320;25316;-56
2021/12/06 10:21:08;;;;;;;53.70;20.80;;;;;;;-0.20;90.32;99931.02;102904;1315;25435;-58
2021/12/06 10:23:38;;;;;;;52.30;20.40;;;;;;;-0.20;90.56;99935.02;102763;1319;22563;-58
2021/12/06 10:26:09;;;;;;;57.20;21.40;;;;;;;-0.19;90.43;99936.89;102699;1318;25578;-56
2021/12/06 10:28:41;;;;;;;51.70;21.70;;;;;;;-0.20;90.48;99934.16;102674;1319;22726;-57
2021/12/06 10:31:10;;;;;;;51.00;19.70;;;;;;;-0.21;90.52;99932.06;102752;1319;22605;-56
2021/12/06 10:33:43;;;;;;;51.30;20.90;;;;;;;-0.21;90.43;99929.86;102689;1320;22730;-56
2021/12/06 10:36:15;;;;;;;51.50;20.70;;;;;;;-0.21;90.38;99927.82;102629;1319;22752;-57
2021/12/06 10:38:47;;;;;;;56.90;23.20;;;;;;;-0.21;90.48;99927.98;102744;1315;22567;-57
2021/12/06 10:41:18;;;;;;;50.80;22.30;;;;;;;-0.21;90.47;99930.63;102742;1316;25542;-56
2021/12/06 10:43:53;;;;;;;59.20;25.40;;;;;;;-0.20;90.52;99928.27;102668;1319;25191;-55
2021/12/06 10:46:22;;;;;;;55.10;23.10;;;;;;;-0.18;90.43;99930.68;102795;1318;22577;-57
2021/12/06 10:48:55;;;;;;;57.30;23.60;;;;;;;-0.17;90.48;99926.36;102820;1313;22682;-56
2021/12/06 10:51:27;;;;;;;56.30;23.50;;;;;;;-0.15;90.43;99921.23;103081;1313;24297;-57
2021/12/06 10:54:01;;;;;;;53.50;24.90;;;;;;;-0.13;90.36;99922.21;102933;1318;25287;-57
2021/12/06 10:56:39;;;;;;;57.10;23.40;;;;;;;-0.10;90.43;99917.64;102798;1315;22636;-58
2021/12/06 10:59:13;;;;;;;49.40;21.20;;;;;;;-0.10;90.37;99921.92;102745;1315;24328;-56
2021/12/06 11:01:43;;;;;;;56.20;25.10;;;;;;;-0.09;90.38;99923.42;102767;1319;22681;-58
2021/12/06 11:04:17;;;;;;;49.20;19.80;;;;;;;-0.07;90.45;99923.39;102846;1315;25368;-59
2021/12/06 11:06:48;;;;;;;57.30;22.80;;;;;;;-0.06;90.37;99928.70;102850;1319;25540;-56
2021/12/06 11:09:21;;;;;;;53.50;22.60;;;;;;;-0.05;90.36;99929.07;102923;1319;24525;-57
2021/12/06 11:11:52;;;;;;;50.10;23.70;;;;;;;-0.04;90.40;99932.50;102739;1315;27498;-56
2021/12/06 11:14:23;;;;;;;49.00;20.30;;;;;;;-0.05;90.43;99934.71;102763;1313;25431;-55
2021/12/06 11:16:53;;;;;;;51.00;21.30;;;;;;;-0.05;90.26;99935.50;102780;1315;22596;-58
2021/12/06 11:19:25;;;;;;;54.90;23.20;;;;;;;-0.05;90.31;99930.17;102713;1318;22588;-56
2021/12/06 11:21:55;;;;;;;56.70;24.10;;;;;;;-0.05;90.31;99931.19;102858;1320;25466;-57
2021/12/06 11:24:27;;;;;;;55.50;21.30;;;;;;;-0.04;90.31;99933.21;102643;1319;22752;-55
2021/12/06 11:27:00;;;;;;;60.40;23.50;;;;;;;-0.06;90.30;99928.14;102798;1316;22620;-58
2021/12/06 11:29:32;;;;;;;53.30;21.20;;;;;;;-0.06;90.40;99932.54;102860;1315;25638;-56
2021/12/06 11:32:09;;;;;;;51.30;22.00;;;;;;;-0.06;90.38;99928.38;102795;1319;22588;-59